General Aviation Weather

Text Reports

Enter one or more of the following location identifiers separated by a space:

Zip Code, Four-Character ICAO or Three-Character IATA airport codes.

METAR - Aviation Routine Weather Report
ESPE - Vidsel,
Updated at 4:20 PM GMT on May 06, 2015 (6:20 PM CEST):
METAR ESPE 061620Z AUTO 11009KT 9999 -SHRA SCT022/// BKN036/// OVC050/// 09/06 Q1002
TAF - Terminal Area Forecast
ESPE - Vidsel,
Updated at 4:20 PM GMT on May 06, 2015 (6:20 PM CEST):
No TAF is currently available for this location.
Decoded:
No decoded TAF is available.
PIREP - Pilot Weather Report
ESPE - Vidsel,
Updated at 4:20 PM GMT on May 06, 2015 (6:20 PM CEST):
No PIREP is currently available for this location.
AIRMET - Airmens Meteorological Information
ESPE - Vidsel,
Updated at 4:20 PM GMT on May 06, 2015 (6:20 PM CEST):
No AIRMET is currently available for this location.
SIGMET - Significant Meteorological Information
ESPE - Vidsel,
Updated at 4:20 PM GMT on May 06, 2015 (6:20 PM CEST):
No SIGMET is currently available for this location.
NOTAM - Notice to Airmen
ESPE - Vidsel,
Updated at 4:20 PM GMT on May 06, 2015 (6:20 PM CEST):
No NOTAM is currently available for this location.
Forecast Area
ESPE - Vidsel,
Updated at 4:20 PM GMT on May 06, 2015 (6:20 PM CEST):
No NOTAM is currently available for this location.
Aviation Weather Maps